Observation data for Floydada on 01/19/2019      Previous  Date  Next       Current Mesonet Observations  Soil Data  Daily Summary Page  Observations in Plain Language
KFLS 190600Z 35021G28KT 00/M02 A3001 RMK A01 T00011024  RH  084%=      5-min Rain = 0
KFLS 190605Z 35022G30KT 00/03 A3002 RMK A01 T00000-26  RH  083%=      5-min Rain = 0
KFLS 190610Z 35017G25KT 00/M03 A3002 RMK A01 T00011026  RH  083%=      5-min Rain = 0
KFLS 190615Z 35018G25KT 00/M03 A3002 RMK A01 T00021027  RH  082%=      5-min Rain = 0
KFLS 190620Z 34017G22KT 00/M03 A3003 RMK A01 T00031026  RH  082%=      5-min Rain = 0
KFLS 190625Z 34019G28KT 00/M03 A3003 RMK A01 T00041026  RH  081%=      5-min Rain = 0
KFLS 190630Z 34018G27KT 00/M02 A3003 RMK A01 T00041024  RH  082%=      5-min Rain = 0
KFLS 190635Z 34020G28KT 00/M02 A3003 RMK A01 T00021022  RH  085%=      5-min Rain = 0
KFLS 190640Z 34018G25KT M00/M02 A3004 RMK A01 T10011018  RH  089%=      5-min Rain = 0
KFLS 190645Z 34016G23KT M00/M02 A3004 RMK A01 T10031016  RH  092%=      5-min Rain = 0
KFLS 190650Z 34017G23KT M00/M01 A3004 RMK A01 T10031014  RH  093%=      5-min Rain = 0
KFLS 190655Z 34018G25KT M00/M01 A3004 RMK A01 T10011014  RH  093%=      5-min Rain = 0
KFLS 190700Z 34018G25KT 00/M02 A3004 RMK A01 T00011016  RH  090%=      5-min Rain = 0
KFLS 190705Z 34020G26KT 00/M02 A3004 RMK A01 T00031017  RH  087%=      5-min Rain = 0
KFLS 190710Z 34021G31KT 01/M02 A3004 RMK A01 T00051017  RH  086%=      5-min Rain = 0
KFLS 190715Z 34018G26KT 01/M02 A3005 RMK A01 T00061017  RH  086%=      5-min Rain = 0
KFLS 190720Z 33017G24KT 01/M02 A3005 RMK A01 T00071016  RH  086%=      5-min Rain = 0
KFLS 190725Z 33017G23KT 01/M02 A3005 RMK A01 T00071016  RH  085%=      5-min Rain = 0
KFLS 190730Z 33016G22KT 01/M02 A3005 RMK A01 T00071016  RH  085%=      5-min Rain = 0
KFLS 190735Z 33020G33KT 01/M02 A3005 RMK A01 T00081017  RH  084%=      5-min Rain = 0
KFLS 190740Z 34019G24KT 01/M02 A3005 RMK A01 T00101019  RH  082%=      5-min Rain = 0
KFLS 190745Z 33019G26KT 01/M02 A3005 RMK A01 T00111022  RH  080%=      5-min Rain = 0
KFLS 190750Z 34017G23KT 01/M02 A3005 RMK A01 T00101022  RH  080%=      5-min Rain = 0
KFLS 190755Z 34020G29KT 01/M02 A3006 RMK A01 T00101023  RH  079%=      5-min Rain = 0
KFLS 190800Z 33020G31KT 01/M03 A3006 RMK A01 T00101025  RH  079%=      5-min Rain = 0
KFLS 190805Z 33022G30KT 01/M03 A3005 RMK A01 T00091028  RH  078%=      5-min Rain = 0
KFLS 190810Z 34022G32KT 01/M03 A3005 RMK A01 T00071031  RH  076%=      5-min Rain = 0
KFLS 190815Z 34023G32KT 01/M03 A3006 RMK A01 T00061033  RH  076%=      5-min Rain = 0
KFLS 190820Z 34019G27KT 00/M03 A3006 RMK A01 T00031032  RH  078%=      5-min Rain = 0
KFLS 190825Z 33017G23KT 00/M03 A3006 RMK A01 T00021032  RH  079%=      5-min Rain = 0
KFLS 190830Z 34016G21KT 00/03 A3006 RMK A01 T00000-32  RH  080%=      5-min Rain = 0
KFLS 190835Z 34022G30KT 00/M04 A3006 RMK A01 T00011036  RH  077%=      5-min Rain = 0
KFLS 190840Z 34025G35KT 00/M04 A3006 RMK A01 T00021042  RH  074%=      5-min Rain = 0
KFLS 190845Z 34023G31KT 00/04 A3007 RMK A01 T00-00-43  RH  074%=      5-min Rain = 0
KFLS 190850Z 34019G27KT M00/M04 A3007 RMK A01 T10021043  RH  075%=      5-min Rain = 0
KFLS 190855Z 33016G27KT M00/M04 A3007 RMK A01 T10031041  RH  077%=      5-min Rain = 0
KFLS 190900Z 34020G28KT M00/M04 A3007 RMK A01 T10031042  RH  076%=      5-min Rain = 0
KFLS 190905Z 34022G29KT M00/M04 A3008 RMK A01 T10041044  RH  075%=      5-min Rain = 0
KFLS 190910Z 33025G32KT M00/M05 A3008 RMK A01 T10041045  RH  075%=      5-min Rain = 0
KFLS 190915Z 33023G33KT M01/M05 A3009 RMK A01 T10051046  RH  075%=      5-min Rain = 0
KFLS 190920Z 34022G33KT M01/M05 A3009 RMK A01 T10061047  RH  075%=      5-min Rain = 0
KFLS 190925Z 34021G27KT M01/M05 A3009 RMK A01 T10071048  RH  075%=      5-min Rain = 0
KFLS 190930Z 34021G28KT M01/M05 A301 RMK A01 T10081048  RH  075%=      5-min Rain = 0
KFLS 190935Z 34019G25KT M01/M05 A301 RMK A01 T10081048  RH  075%=      5-min Rain = 0
KFLS 190940Z 34019G24KT M01/M05 A301 RMK A01 T10091048  RH  076%=      5-min Rain = 0
KFLS 190945Z 34020G27KT M01/M05 A3011 RMK A01 T10091048  RH  076%=      5-min Rain = 0
KFLS 190950Z 34020G26KT M01/M05 A3011 RMK A01 T10091048  RH  076%=      5-min Rain = 0
KFLS 190955Z 34018G27KT M01/M05 A3011 RMK A01 T10101049  RH  076%=      5-min Rain = 0
KFLS 191000Z 33021G27KT M01/M05 A3011 RMK A01 T10101049  RH  076%=      5-min Rain = 0
KFLS 191005Z 33019G30KT M01/M05 A3012 RMK A01 T10101049  RH  076%=      5-min Rain = 0
KFLS 191010Z 33018G24KT M01/M05 A3012 RMK A01 T10121049  RH  077%=      5-min Rain = 0
KFLS 191015Z 33020G32KT M01/M05 A3013 RMK A01 T10121049  RH  077%=      5-min Rain = 0
KFLS 191020Z 33020G26KT M01/M05 A3013 RMK A01 T10121049  RH  077%=      5-min Rain = 0
KFLS 191025Z 33018G25KT M01/M05 A3013 RMK A01 T10131050  RH  077%=      5-min Rain = 0
KFLS 191030Z 33017G22KT M01/M05 A3013 RMK A01 T10141050  RH  077%=      5-min Rain = 0
KFLS 191035Z 33018G23KT M01/M05 A3013 RMK A01 T10141051  RH  077%=      5-min Rain = 0
KFLS 191040Z 33015G23KT M02/M05 A3013 RMK A01 T10161052  RH  077%=      5-min Rain = 0
KFLS 191045Z 33016G23KT M02/M05 A3014 RMK A01 T10171052  RH  078%=      5-min Rain = 0
KFLS 191050Z 32016G22KT M02/M05 A3014 RMK A01 T10191051  RH  079%=      5-min Rain = 0
KFLS 191055Z 32018G23KT M02/M05 A3014 RMK A01 T10201051  RH  080%=      5-min Rain = 0
KFLS 191100Z 32016G21KT M02/M05 A3014 RMK A01 T10221051  RH  081%=      5-min Rain = 0
KFLS 191105Z 32018G24KT M02/M05 A3014 RMK A01 T10221052  RH  081%=      5-min Rain = 0
KFLS 191110Z 32018G25KT M02/M05 A3015 RMK A01 T10221052  RH  081%=      5-min Rain = 0
KFLS 191115Z 32017G23KT M02/M05 A3015 RMK A01 T10231053  RH  081%=      5-min Rain = 0
KFLS 191120Z 31017G22KT M02/M05 A3016 RMK A01 T10241053  RH  081%=      5-min Rain = 0
KFLS 191125Z 31017KT M02/M05 A3016 RMK A01 T10241053  RH  082%=      5-min Rain = 0
KFLS 191130Z 31016G23KT M02/M05 A3016 RMK A01 T10241053  RH  082%=      5-min Rain = 0
KFLS 191135Z 31015KT M03/M05 A3016 RMK A01 T10261054  RH  082%=      5-min Rain = 0
KFLS 191140Z 31013G18KT M03/M05 A3016 RMK A01 T10271054  RH  082%=      5-min Rain = 0
KFLS 191145Z 31013KT M03/M05 A3017 RMK A01 T10271054  RH  083%=      5-min Rain = 0
KFLS 191150Z 31013KT M03/M05 A3017 RMK A01 T10281054  RH  083%=      5-min Rain = 0
KFLS 191155Z 31012KT M03/M05 A3016 RMK A01 T10281054  RH  083%=      5-min Rain = 0
KFLS 191200Z 31013KT M03/M05 A3017 RMK A01 T10281054  RH  083%=      5-min Rain = 0
KFLS 191205Z 31012KT M03/M06 A3016 RMK A01 T10291055  RH  083%=      5-min Rain = 0
KFLS 191210Z 32011KT M03/M05 A3017 RMK A01 T10291054  RH  084%=      5-min Rain = 0
KFLS 191215Z 32012KT M03/M05 A3017 RMK A01 T10271053  RH  083%=      5-min Rain = 0
KFLS 191220Z 33013G18KT M03/M05 A3017 RMK A01 T10271053  RH  083%=      5-min Rain = 0
KFLS 191225Z 33013KT M03/M05 A3017 RMK A01 T10251052  RH  083%=      5-min Rain = 0
KFLS 191230Z 33011KT M03/M05 A3017 RMK A01 T10261053  RH  083%=      5-min Rain = 0
KFLS 191235Z 33011G16KT M03/M05 A3017 RMK A01 T10261053  RH  083%=      5-min Rain = 0
KFLS 191240Z 33010KT M03/M05 A3018 RMK A01 T10281053  RH  084%=      5-min Rain = 0
KFLS 191245Z 33011KT M03/M05 A3018 RMK A01 T10271052  RH  084%=      5-min Rain = 0
KFLS 191250Z 33011KT M03/M05 A3018 RMK A01 T10271052  RH  084%=      5-min Rain = 0
KFLS 191255Z 33011KT M03/M05 A3019 RMK A01 T10271052  RH  084%=      5-min Rain = 0
KFLS 191300Z 33010KT M03/M05 A3019 RMK A01 T10281052  RH  084%=      5-min Rain = 0
KFLS 191305Z 33012KT M03/M05 A3019 RMK A01 T10271052  RH  084%=      5-min Rain = 0
KFLS 191310Z 33012G18KT M03/M05 A3019 RMK A01 T10271051  RH  084%=      5-min Rain = 0
KFLS 191315Z 32012KT M03/M05 A302 RMK A01 T10261051  RH  084%=      5-min Rain = 0
KFLS 191320Z 32013KT M03/M05 A302 RMK A01 T10261051  RH  084%=      5-min Rain = 0
KFLS 191325Z 32012G17KT M03/M05 A302 RMK A01 T10261052  RH  084%=      5-min Rain = 0
KFLS 191330Z 33013G18KT M03/M05 A302 RMK A01 T10271052  RH  084%=      5-min Rain = 0
KFLS 191335Z 33012G17KT M03/M05 A302 RMK A01 T10261051  RH  083%=      5-min Rain = 0
KFLS 191340Z 33012KT M03/M05 A302 RMK A01 T10261051  RH  083%=      5-min Rain = 0
KFLS 191345Z 33011KT M03/M05 A3021 RMK A01 T10261052  RH  083%=      5-min Rain = 0
KFLS 191350Z 33011G16KT M03/M05 A3021 RMK A01 T10261052  RH  083%=      5-min Rain = 0
KFLS 191355Z 33011KT M03/M05 A3022 RMK A01 T10261052  RH  084%=      5-min Rain = 0
KFLS 191400Z 33010KT M03/M05 A3022 RMK A01 T10271053  RH  084%=      5-min Rain = 0
KFLS 191405Z 32011KT M03/M05 A3022 RMK A01 T10281053  RH  084%=      5-min Rain = 0
KFLS 191410Z 32011G16KT M03/M05 A3022 RMK A01 T10281052  RH  084%=      5-min Rain = 0
KFLS 191415Z 31011G16KT M03/M05 A3023 RMK A01 T10261052  RH  084%=      5-min Rain = 0
KFLS 191420Z 32011KT M03/M05 A3023 RMK A01 T10261051  RH  084%=      5-min Rain = 0
KFLS 191425Z 32011KT M03/M05 A3024 RMK A01 T10251051  RH  083%=      5-min Rain = 0
KFLS 191430Z 32011KT M02/M05 A3024 RMK A01 T10231050  RH  083%=      5-min Rain = 0
KFLS 191435Z 32011KT M02/M05 A3024 RMK A01 T10221049  RH  083%=      5-min Rain = 0
KFLS 191440Z 32011G16KT M02/M05 A3025 RMK A01 T10201048  RH  082%=      5-min Rain = 0
KFLS 191445Z 32011KT M02/M05 A3025 RMK A01 T10191048  RH  081%=      5-min Rain = 0
KFLS 191450Z 32010G15KT M02/M05 A3026 RMK A01 T10171047  RH  081%=      5-min Rain = 0
KFLS 191455Z 32009KT M01/M05 A3026 RMK A01 T10141045  RH  080%=      5-min Rain = 0
KFLS 191500Z 33010KT M01/M05 A3026 RMK A01 T10121045  RH  079%=      5-min Rain = 0
KFLS 191505Z 33011G16KT M01/M04 A3026 RMK A01 T10091044  RH  078%=      5-min Rain = 0
KFLS 191510Z 33013KT M01/M05 A3026 RMK A01 T10081045  RH  077%=      5-min Rain = 0
KFLS 191515Z 33012G18KT M00/M04 A3027 RMK A01 T10041043  RH  076%=      5-min Rain = 0
KFLS 191520Z 34014G19KT M00/M04 A3027 RMK A01 T10031044  RH  075%=      5-min Rain = 0
KFLS 191525Z 33015KT M00/M04 A3027 RMK A01 T10021044  RH  075%=      5-min Rain = 0
KFLS 191530Z 34014G21KT 00/04 A3028 RMK A01 T00-00-42  RH  074%=      5-min Rain = 0
KFLS 191535Z 33014G20KT 00/M04 A3028 RMK A01 T00031041  RH  074%=      5-min Rain = 0
KFLS 191540Z 33013G19KT 01/M04 A3028 RMK A01 T00061039  RH  073%=      5-min Rain = 0
KFLS 191545Z 34014G19KT 01/M04 A3028 RMK A01 T00051040  RH  072%=      5-min Rain = 0
KFLS 191550Z 34013G18KT 01/M04 A3028 RMK A01 T00071039  RH  072%=      5-min Rain = 0
KFLS 191555Z 34015KT 01/M04 A3028 RMK A01 T00081039  RH  072%=      5-min Rain = 0
KFLS 191600Z 34015KT 01/M04 A3028 RMK A01 T00091039  RH  071%=      5-min Rain = 0
KFLS 191605Z 34014G22KT 01/M04 A3028 RMK A01 T00121036  RH  071%=      5-min Rain = 0
KFLS 191610Z 34017G22KT 01/M04 A3028 RMK A01 T00141037  RH  070%=      5-min Rain = 0
KFLS 191615Z 34014G20KT 02/M03 A3029 RMK A01 T00191033  RH  069%=      5-min Rain = 0
KFLS 191620Z 34016G23KT 02/M04 A3029 RMK A01 T00201035  RH  067%=      5-min Rain = 0
KFLS 191625Z 34017G22KT 02/M04 A3029 RMK A01 T00221035  RH  067%=      5-min Rain = 0
KFLS 191630Z 34019G25KT 02/M03 A3029 RMK A01 T00241034  RH  066%=      5-min Rain = 0
KFLS 191635Z 34019G25KT 02/M04 A3029 RMK A01 T00241036  RH  065%=      5-min Rain = 0
KFLS 191640Z 34019G24KT 03/M04 A3029 RMK A01 T00251036  RH  065%=      5-min Rain = 0
KFLS 191645Z 34018G24KT 03/M04 A3029 RMK A01 T00261035  RH  065%=      5-min Rain = 0
KFLS 191650Z 34015G23KT 03/M03 A3029 RMK A01 T00331031  RH  064%=      5-min Rain = 0
KFLS 191655Z 34018G24KT 03/M03 A3029 RMK A01 T00331034  RH  062%=      5-min Rain = 0
KFLS 191700Z 34017KT 04/M03 A303 RMK A01 T00371032  RH  061%=      5-min Rain = 0
KFLS 191705Z 34016G22KT 04/M03 A303 RMK A01 T00391032  RH  060%=      5-min Rain = 0
KFLS 191710Z 34017G22KT 04/M03 A303 RMK A01 T00401033  RH  059%=      5-min Rain = 0
KFLS 191715Z 33018G24KT 04/M04 A303 RMK A01 T00401035  RH  059%=      5-min Rain = 0
KFLS 191720Z 33019G25KT 04/M04 A303 RMK A01 T00411036  RH  058%=      5-min Rain = 0
KFLS 191725Z 34018G25KT 04/M04 A303 RMK A01 T00441035  RH  057%=      5-min Rain = 0
KFLS 191730Z 34017G22KT 04/M04 A303 RMK A01 T00421037  RH  057%=      5-min Rain = 0
KFLS 191735Z 34016G22KT 05/M04 A303 RMK A01 T00471036  RH  056%=      5-min Rain = 0
KFLS 191740Z 35016G22KT 05/M04 A303 RMK A01 T00481035  RH  055%=      5-min Rain = 0
KFLS 191745Z 35015G20KT 05/M04 A303 RMK A01 T00491036  RH  055%=      5-min Rain = 0
KFLS 191750Z 35014G20KT 05/M04 A303 RMK A01 T00531035  RH  054%=      5-min Rain = 0
KFLS 191755Z 34016G22KT 05/M04 A303 RMK A01 T00481037  RH  055%=      5-min Rain = 0
KFLS 191800Z 34015G21KT 05/M04 A303 RMK A01 T00521035  RH  054%=      5-min Rain = 0
KFLS 191805Z 35016G21KT 05/M04 A303 RMK A01 T00521036  RH  053%=      5-min Rain = 0
KFLS 191810Z 34013G18KT 05/M04 A303 RMK A01 T00541035  RH  053%=      5-min Rain = 0
KFLS 191815Z 34017G23KT 06/M04 A3029 RMK A01 T00561037  RH  052%=      5-min Rain = 0
KFLS 191820Z 35013G20KT 06/M04 A3029 RMK A01 T00581035  RH  052%=      5-min Rain = 0
KFLS 191825Z 34014G20KT 06/M04 A3029 RMK A01 T00581037  RH  051%=      5-min Rain = 0
KFLS 191830Z 35014G19KT 06/M04 A3029 RMK A01 T00591037  RH  051%=      5-min Rain = 0
KFLS 191835Z 34016KT 07/M04 A3028 RMK A01 T00661037  RH  049%=      5-min Rain = 0
KFLS 191840Z 34018G25KT 07/M04 A3028 RMK A01 T00651041  RH  047%=      5-min Rain = 0
KFLS 191845Z 33019G25KT 07/M04 A3028 RMK A01 T00681041  RH  046%=      5-min Rain = 0
KFLS 191850Z 34018G25KT 07/M04 A3028 RMK A01 T00681040  RH  047%=      5-min Rain = 0
KFLS 191855Z 34017G23KT 07/M04 A3028 RMK A01 T00701041  RH  046%=      5-min Rain = 0
KFLS 191900Z 35017G24KT 07/M04 A3028 RMK A01 T00731041  RH  045%=      5-min Rain = 0
KFLS 191905Z 35016KT 07/M04 A3027 RMK A01 T00741040  RH  045%=      5-min Rain = 0
KFLS 191910Z 34019G25KT 08/M04 A3027 RMK A01 T00761044  RH  043%=      5-min Rain = 0
KFLS 191915Z 34019G24KT 07/M05 A3027 RMK A01 T00711045  RH  044%=      5-min Rain = 0
KFLS 191920Z 34019G24KT 08/M05 A3027 RMK A01 T00751047  RH  042%=      5-min Rain = 0
KFLS 191925Z 34019G26KT 08/M05 A3027 RMK A01 T00761047  RH  042%=      5-min Rain = 0
KFLS 191930Z 35018G23KT 08/M05 A3027 RMK A01 T00751046  RH  042%=      5-min Rain = 0
KFLS 191935Z 34016G22KT 08/M04 A3026 RMK A01 T00781043  RH  042%=      5-min Rain = 0
KFLS 191940Z 35016G22KT 08/M04 A3026 RMK A01 T00811043  RH  041%=      5-min Rain = 0
KFLS 191945Z 34016G23KT 08/M04 A3026 RMK A01 T00821044  RH  041%=      5-min Rain = 0
KFLS 191950Z 34017G25KT 08/M05 A3026 RMK A01 T00841046  RH  040%=      5-min Rain = 0
KFLS 191955Z 35016G22KT 08/M05 A3026 RMK A01 T00831047  RH  040%=      5-min Rain = 0
KFLS 192000Z 34017G23KT 08/M05 A3026 RMK A01 T00831048  RH  040%=      5-min Rain = 0
KFLS 192005Z 35016G24KT 08/M05 A3025 RMK A01 T00831047  RH  040%=      5-min Rain = 0
KFLS 192010Z 34017G22KT 08/M05 A3025 RMK A01 T00841048  RH  039%=      5-min Rain = 0
KFLS 192015Z 34015G23KT 08/M05 A3025 RMK A01 T00811048  RH  040%=      5-min Rain = 0
KFLS 192020Z 34015G24KT 09/M05 A3025 RMK A01 T00861047  RH  039%=      5-min Rain = 0
KFLS 192025Z 34015G21KT 09/M05 A3025 RMK A01 T00891049  RH  038%=      5-min Rain = 0
KFLS 192030Z 34015G20KT 09/M05 A3025 RMK A01 T00861049  RH  038%=      5-min Rain = 0
KFLS 192035Z 34016G23KT 09/M05 A3025 RMK A01 T00891049  RH  038%=      5-min Rain = 0
KFLS 192040Z 33014G20KT 09/M05 A3025 RMK A01 T00871049  RH  038%=      5-min Rain = 0
KFLS 192045Z 33013G20KT 09/M05 A3025 RMK A01 T00931047  RH  037%=      5-min Rain = 0
KFLS 192050Z 34014G19KT 09/M05 A3025 RMK A01 T00911048  RH  037%=      5-min Rain = 0
KFLS 192055Z 33018G23KT 09/M05 A3025 RMK A01 T00901051  RH  037%=      5-min Rain = 0
KFLS 192100Z 33016G21KT 09/M05 A3025 RMK A01 T00911051  RH  037%=      5-min Rain = 0
KFLS 192105Z 32016G21KT 09/M05 A3025 RMK A01 T00931051  RH  036%=      5-min Rain = 0
KFLS 192110Z 34017KT 09/M05 A3026 RMK A01 T00921051  RH  036%=      5-min Rain = 0
KFLS 192115Z 33015G21KT 09/M05 A3026 RMK A01 T00901051  RH  037%=      5-min Rain = 0
KFLS 192120Z 33017G22KT 09/M05 A3026 RMK A01 T00931050  RH  036%=      5-min Rain = 0
KFLS 192125Z 34013G18KT 09/M05 A3026 RMK A01 T00921049  RH  037%=      5-min Rain = 0
KFLS 192130Z 34014G20KT 09/M05 A3026 RMK A01 T00931049  RH  037%=      5-min Rain = 0
KFLS 192135Z 34015KT 09/M05 A3026 RMK A01 T00921050  RH  037%=      5-min Rain = 0
KFLS 192140Z 33014G20KT 09/M05 A3025 RMK A01 T00931050  RH  036%=      5-min Rain = 0
KFLS 192145Z 33014KT 09/M05 A3025 RMK A01 T00941050  RH  036%=      5-min Rain = 0
KFLS 192150Z 33012G18KT 09/M05 A3025 RMK A01 T00941049  RH  036%=      5-min Rain = 0
KFLS 192155Z 34013KT 09/M05 A3026 RMK A01 T00941048  RH  037%=      5-min Rain = 0
KFLS 192200Z 33010G15KT 09/M05 A3026 RMK A01 T00921048  RH  037%=      5-min Rain = 0
KFLS 192205Z 32013G19KT 10/M05 A3026 RMK A01 T00961048  RH  036%=      5-min Rain = 0
KFLS 192210Z 34015G21KT 09/M05 A3026 RMK A01 T00931048  RH  037%=      5-min Rain = 0
KFLS 192215Z 33014KT 09/M05 A3026 RMK A01 T00931049  RH  037%=      5-min Rain = 0
KFLS 192220Z 34014KT 09/M05 A3025 RMK A01 T00931048  RH  037%=      5-min Rain = 0
KFLS 192225Z 34015KT 09/M05 A3025 RMK A01 T00931048  RH  037%=      5-min Rain = 0
KFLS 192230Z 34015G21KT 09/M05 A3025 RMK A01 T00911049  RH  037%=      5-min Rain = 0
KFLS 192235Z 33013KT 09/M05 A3025 RMK A01 T00921047  RH  038%=      5-min Rain = 0
KFLS 192240Z 34013G18KT 09/M05 A3025 RMK A01 T00901049  RH  038%=      5-min Rain = 0
KFLS 192245Z 34012G17KT 09/M05 A3026 RMK A01 T00901049  RH  037%=      5-min Rain = 0
KFLS 192250Z 33013G18KT 09/M05 A3026 RMK A01 T00901049  RH  037%=      5-min Rain = 0
KFLS 192255Z 34010KT 09/M05 A3025 RMK A01 T00901048  RH  038%=      5-min Rain = 0
KFLS 192300Z 34013KT 09/M05 A3025 RMK A01 T00881050  RH  038%=      5-min Rain = 0
KFLS 192305Z 34010G16KT 09/M05 A3026 RMK A01 T00861050  RH  038%=      5-min Rain = 0
KFLS 192310Z 34010KT 09/M05 A3026 RMK A01 T00861050  RH  038%=      5-min Rain = 0
KFLS 192315Z 34010KT 08/M05 A3026 RMK A01 T00841051  RH  039%=      5-min Rain = 0
KFLS 192320Z 34009KT 08/M05 A3026 RMK A01 T00821051  RH  039%=      5-min Rain = 0
KFLS 192325Z 35011KT 08/M05 A3026 RMK A01 T00811050  RH  040%=      5-min Rain = 0
KFLS 192330Z 35010KT 08/M05 A3026 RMK A01 T00791049  RH  040%=      5-min Rain = 0
KFLS 192335Z 34009G14KT 08/M05 A3026 RMK A01 T00771049  RH  041%=      5-min Rain = 0
KFLS 192340Z 33009KT 08/M05 A3026 RMK A01 T00751049  RH  042%=      5-min Rain = 0
KFLS 192345Z 34008G13KT 07/M05 A3026 RMK A01 T00711049  RH  043%=      5-min Rain = 0
KFLS 192350Z 34008KT 07/M05 A3026 RMK A01 T00671049  RH  044%=      5-min Rain = 0
KFLS 192355Z 34007KT 06/M05 A3026 RMK A01 T00641050  RH  044%=      5-min Rain = 0
KFLS 200000Z 34005KT 06/M05 A3026 RMK A01 T00591050  RH  046%=      5-min Rain = 0
KFLS 200005Z 35005KT 05/M05 A3026 RMK A01 T00531051  RH  048%=      5-min Rain = 0
KFLS 200010Z 35005KT 05/M05 A3026 RMK A01 T00511051  RH  048%=      5-min Rain = 0
KFLS 200015Z 35005KT 05/M05 A3026 RMK A01 T00491052  RH  048%=      5-min Rain = 0
KFLS 200020Z 00005KT 05/M05 A3026 RMK A01 T00461053  RH  049%=      5-min Rain = 0
KFLS 200025Z 02006KT 04/M06 A3026 RMK A01 T00361057  RH  051%=      5-min Rain = 0
KFLS 200030Z 01005KT 03/M06 A3026 RMK A01 T00251059  RH  054%=      5-min Rain = 0
KFLS 200035Z 00005KT 03/M06 A3026 RMK A01 T00271057  RH  055%=      5-min Rain = 0
KFLS 200040Z 00006KT 03/M06 A3026 RMK A01 T00301056  RH  054%=      5-min Rain = 0
KFLS 200045Z 01006KT 03/M06 A3026 RMK A01 T00281056  RH  055%=      5-min Rain = 0
KFLS 200050Z 01008KT 03/M06 A3026 RMK A01 T00291055  RH  055%=      5-min Rain = 0
KFLS 200055Z 01008KT 03/M06 A3026 RMK A01 T00251057  RH  055%=      5-min Rain = 0
KFLS 200100Z 01008KT 02/M06 A3026 RMK A01 T00221058  RH  056%=      5-min Rain = 0
KFLS 200105Z 02006KT 02/M06 A3026 RMK A01 T00171061  RH  057%=      5-min Rain = 0
KFLS 200110Z 02006KT 01/M07 A3026 RMK A01 T00071066  RH  059%=      5-min Rain = 0
KFLS 200115Z 02006KT M00/M07 A3026 RMK A01 T10021069  RH  061%=      5-min Rain = 0
KFLS 200120Z 02002KT M01/M07 A3026 RMK A01 T10051067  RH  063%=      5-min Rain = 0
KFLS 200125Z 05003KT M01/M07 A3027 RMK A01 T10061066  RH  065%=      5-min Rain = 0
KFLS 200130Z 06003KT M01/M06 A3027 RMK A01 T10061064  RH  066%=      5-min Rain = 0
KFLS 200135Z 05005KT M01/M06 A3026 RMK A01 T10061063  RH  066%=      5-min Rain = 0
KFLS 200140Z 05005KT M01/M06 A3026 RMK A01 T10061064  RH  065%=      5-min Rain = 0
KFLS 200145Z 06003KT M01/M07 A3025 RMK A01 T10121068  RH  066%=      5-min Rain = 0
KFLS 200150Z 07004KT M02/M07 A3025 RMK A01 T10181069  RH  069%=      5-min Rain = 0
KFLS 200155Z 06006KT M01/M06 A3025 RMK A01 T10101060  RH  069%=      5-min Rain = 0
KFLS 200200Z 07005KT M01/M06 A3025 RMK A01 T10071061  RH  068%=      5-min Rain = 0
KFLS 200205Z 08006KT M01/M06 A3025 RMK A01 T10061062  RH  066%=      5-min Rain = 0
KFLS 200210Z 09005KT M02/M07 A3025 RMK A01 T10151065  RH  070%=      5-min Rain = 0
KFLS 200215Z 09004KT M01/M06 A3025 RMK A01 T10061059  RH  068%=      5-min Rain = 0
KFLS 200220Z 08005KT M00/M06 A3026 RMK A01 T10041061  RH  066%=      5-min Rain = 0
KFLS 200225Z 08004KT M01/M06 A3026 RMK A01 T10061063  RH  066%=      5-min Rain = 0
KFLS 200230Z 08004KT M01/M06 A3026 RMK A01 T10091063  RH  068%=      5-min Rain = 0
KFLS 200235Z 08005KT M01/M06 A3026 RMK A01 T10091061  RH  068%=      5-min Rain = 0
KFLS 200240Z 08006KT M01/M06 A3026 RMK A01 T10081063  RH  067%=      5-min Rain = 0
KFLS 200245Z 08005KT M01/M06 A3027 RMK A01 T10091061  RH  068%=      5-min Rain = 0
KFLS 200250Z 07004KT M01/M06 A3027 RMK A01 T10061060  RH  068%=      5-min Rain = 0
KFLS 200255Z 06004KT M00/M06 A3027 RMK A01 T10031059  RH  067%=      5-min Rain = 0
KFLS 200300Z 06003KT M01/M06 A3027 RMK A01 T10051059  RH  068%=      5-min Rain = 0
KFLS 200305Z 06004KT M00/M06 A3027 RMK A01 T10041059  RH  067%=      5-min Rain = 0
KFLS 200310Z 07004KT M01/M06 A3027 RMK A01 T10081063  RH  067%=      5-min Rain = 0
KFLS 200315Z 07003KT M01/M06 A3027 RMK A01 T10121064  RH  068%=      5-min Rain = 0
KFLS 200320Z 07003KT M01/M06 A3027 RMK A01 T10091062  RH  068%=      5-min Rain = 0
KFLS 200325Z 07003KT M01/M06 A3028 RMK A01 T10091062  RH  068%=      5-min Rain = 0
KFLS 200330Z 08003KT M01/M06 A3028 RMK A01 T10081061  RH  068%=      5-min Rain = 0
KFLS 200335Z 08003KT M01/M06 A3028 RMK A01 T10071059  RH  069%=      5-min Rain = 0
KFLS 200340Z 10006KT M01/M06 A3026 RMK A01 T10071061  RH  068%=      5-min Rain = 0
KFLS 200345Z 11006KT M02/M06 A3026 RMK A01 T10161064  RH  071%=      5-min Rain = 0
KFLS 200350Z 11006KT M02/M06 A3026 RMK A01 T10171060  RH  073%=      5-min Rain = 0
KFLS 200355Z 10006KT M02/M06 A3027 RMK A01 T10171061  RH  073%=      5-min Rain = 0
KFLS 200400Z 10007KT M02/M06 A3026 RMK A01 T10201063  RH  073%=      5-min Rain = 0
KFLS 200405Z 10008KT M03/M07 A3026 RMK A01 T10251065  RH  075%=      5-min Rain = 0
KFLS 200410Z 10007KT M03/M07 A3026 RMK A01 T10301066  RH  077%=      5-min Rain = 0
KFLS 200415Z 10006KT M03/M06 A3026 RMK A01 T10291063  RH  078%=      5-min Rain = 0
KFLS 200420Z 10006KT M03/M06 A3027 RMK A01 T10281062  RH  078%=      5-min Rain = 0
KFLS 200425Z 10007KT M03/M06 A3027 RMK A01 T10271059  RH  079%=      5-min Rain = 0
KFLS 200430Z 11007KT M03/M06 A3026 RMK A01 T10261058  RH  079%=      5-min Rain = 0
KFLS 200435Z 12006KT M02/M05 A3026 RMK A01 T10201054  RH  079%=      5-min Rain = 0
KFLS 200440Z 11006KT M02/M06 A3026 RMK A01 T10181055  RH  077%=      5-min Rain = 0
KFLS 200445Z 11006KT M01/M05 A3027 RMK A01 T10141053  RH  075%=      5-min Rain = 0
KFLS 200450Z 11006KT M02/M06 A3026 RMK A01 T10201061  RH  074%=      5-min Rain = 0
KFLS 200455Z 11006KT M03/M06 A3026 RMK A01 T10261064  RH  076%=      5-min Rain = 0
KFLS 200500Z 11006KT M02/M06 A3026 RMK A01 T10231056  RH  079%=      5-min Rain = 0
KFLS 200505Z 12006KT M02/M06 A3026 RMK A01 T10231059  RH  077%=      5-min Rain = 0
KFLS 200510Z 11005KT M03/M06 A3026 RMK A01 T10291064  RH  078%=      5-min Rain = 0
KFLS 200515Z 12006KT M03/M06 A3027 RMK A01 T10301063  RH  079%=      5-min Rain = 0
KFLS 200520Z 13006KT M03/M07 A3027 RMK A01 T10341065  RH  080%=      5-min Rain = 0
KFLS 200525Z 13005KT M03/M06 A3027 RMK A01 T10331063  RH  081%=      5-min Rain = 0
KFLS 200530Z 13004KT M03/M06 A3028 RMK A01 T10311060  RH  081%=      5-min Rain = 0
KFLS 200535Z 13005KT M03/M06 A3028 RMK A01 T10271057  RH  081%=      5-min Rain = 0
KFLS 200540Z 12007KT M02/M05 A3028 RMK A01 T10211054  RH  079%=      5-min Rain = 0
KFLS 200545Z 13008KT M02/M06 A3028 RMK A01 T10221056  RH  078%=      5-min Rain = 0
KFLS 200550Z 15006KT M03/M06 A3027 RMK A01 T10291060  RH  080%=      5-min Rain = 0
KFLS 200555Z 14008KT M03/M06 A3028 RMK A01 T10291058  RH  081%=      5-min Rain = 0

Page generated in 0.0126 seconds.